sensor_id;sensor_type;location;lat;lon;timestamp;P1;durP1;ratioP1;P2;durP2;ratioP2
39020;SDS011;25188;51.958;5.842;2023-10-13T00:01:30;21.40;;;14.70;;
39020;SDS011;25188;51.958;5.842;2023-10-13T00:03:55;18.30;;;14.70;;
39020;SDS011;25188;51.958;5.842;2023-10-13T00:06:21;19.42;;;15.55;;
39020;SDS011;25188;51.958;5.842;2023-10-13T00:08:46;20.42;;;13.85;;
39020;SDS011;25188;51.958;5.842;2023-10-13T00:11:13;15.05;;;12.63;;
39020;SDS011;25188;51.958;5.842;2023-10-13T00:13:39;16.20;;;12.55;;
39020;SDS011;25188;51.958;5.842;2023-10-13T00:16:15;15.30;;;11.00;;
39020;SDS011;25188;51.958;5.842;2023-10-13T00:18:48;15.43;;;12.30;;
39020;SDS011;25188;51.958;5.842;2023-10-13T00:21:16;15.60;;;12.18;;
39020;SDS011;25188;51.958;5.842;2023-10-13T00:23:45;17.38;;;11.75;;
39020;SDS011;25188;51.958;5.842;2023-10-13T00:26:23;16.67;;;11.85;;
39020;SDS011;25188;51.958;5.842;2023-10-13T00:31:39;15.65;;;10.57;;
39020;SDS011;25188;51.958;5.842;2023-10-13T00:34:11;14.93;;;10.30;;
39020;SDS011;25188;51.958;5.842;2023-10-13T00:36:44;14.93;;;11.20;;
39020;SDS011;25188;51.958;5.842;2023-10-13T00:39:14;15.90;;;11.20;;
39020;SDS011;25188;51.958;5.842;2023-10-13T00:41:43;15.80;;;11.32;;
39020;SDS011;25188;51.958;5.842;2023-10-13T00:44:23;14.07;;;10.23;;
39020;SDS011;25188;51.958;5.842;2023-10-13T00:47:02;12.23;;;9.90;;
39020;SDS011;25188;51.958;5.842;2023-10-13T00:49:30;14.80;;;9.63;;
39020;SDS011;25188;51.958;5.842;2023-10-13T00:51:56;14.02;;;11.10;;
39020;SDS011;25188;51.958;5.842;2023-10-13T00:54:22;20.20;;;11.95;;
39020;SDS011;25188;51.958;5.842;2023-10-13T00:56:52;17.05;;;12.30;;
39020;SDS011;25188;51.958;5.842;2023-10-13T00:59:29;17.92;;;12.63;;
39020;SDS011;25188;51.958;5.842;2023-10-13T01:02:01;19.38;;;12.65;;
39020;SDS011;25188;51.958;5.842;2023-10-13T01:04:47;14.68;;;11.23;;
39020;SDS011;25188;51.958;5.842;2023-10-13T01:07:14;16.33;;;11.90;;
39020;SDS011;25188;51.958;5.842;2023-10-13T01:09:47;19.87;;;13.43;;
39020;SDS011;25188;51.958;5.842;2023-10-13T01:12:12;16.58;;;11.55;;
39020;SDS011;25188;51.958;5.842;2023-10-13T01:14:39;15.70;;;11.52;;
39020;SDS011;25188;51.958;5.842;2023-10-13T01:17:05;15.73;;;11.38;;
39020;SDS011;25188;51.958;5.842;2023-10-13T01:19:35;14.18;;;11.07;;
39020;SDS011;25188;51.958;5.842;2023-10-13T01:22:06;14.95;;;11.68;;
39020;SDS011;25188;51.958;5.842;2023-10-13T01:24:32;17.25;;;11.73;;
39020;SDS011;25188;51.958;5.842;2023-10-13T01:27:03;16.80;;;11.30;;
39020;SDS011;25188;51.958;5.842;2023-10-13T01:29:43;18.20;;;11.40;;
39020;SDS011;25188;51.958;5.842;2023-10-13T01:32:14;14.75;;;9.35;;
39020;SDS011;25188;51.958;5.842;2023-10-13T01:34:49;16.65;;;10.93;;
39020;SDS011;25188;51.958;5.842;2023-10-13T01:37:19;14.20;;;9.52;;
39020;SDS011;25188;51.958;5.842;2023-10-13T01:39:45;19.45;;;11.02;;
39020;SDS011;25188;51.958;5.842;2023-10-13T01:42:14;17.73;;;10.57;;
39020;SDS011;25188;51.958;5.842;2023-10-13T01:44:47;13.10;;;8.95;;
39020;SDS011;25188;51.958;5.842;2023-10-13T01:47:13;18.65;;;10.50;;
39020;SDS011;25188;51.958;5.842;2023-10-13T01:49:40;13.52;;;9.23;;
39020;SDS011;25188;51.958;5.842;2023-10-13T01:52:12;14.90;;;9.27;;
39020;SDS011;25188;51.958;5.842;2023-10-13T01:54:45;11.35;;;8.10;;
39020;SDS011;25188;51.958;5.842;2023-10-13T01:57:14;12.45;;;7.68;;
39020;SDS011;25188;51.958;5.842;2023-10-13T01:59:45;14.77;;;9.27;;
39020;SDS011;25188;51.958;5.842;2023-10-13T02:02:13;13.48;;;8.80;;
39020;SDS011;25188;51.958;5.842;2023-10-13T02:04:42;14.93;;;7.55;;
39020;SDS011;25188;51.958;5.842;2023-10-13T02:07:17;14.02;;;7.22;;
39020;SDS011;25188;51.958;5.842;2023-10-13T02:09:42;10.82;;;7.88;;
39020;SDS011;25188;51.958;5.842;2023-10-13T02:12:08;12.15;;;8.43;;
39020;SDS011;25188;51.958;5.842;2023-10-13T02:14:35;14.70;;;8.35;;
39020;SDS011;25188;51.958;5.842;2023-10-13T02:17:04;14.93;;;7.90;;
39020;SDS011;25188;51.958;5.842;2023-10-13T02:19:41;14.95;;;7.95;;
39020;SDS011;25188;51.958;5.842;2023-10-13T02:22:10;12.40;;;7.47;;
39020;SDS011;25188;51.958;5.842;2023-10-13T02:24:37;11.45;;;7.15;;
39020;SDS011;25188;51.958;5.842;2023-10-13T02:27:08;14.68;;;7.93;;
39020;SDS011;25188;51.958;5.842;2023-10-13T02:29:41;14.05;;;7.45;;
39020;SDS011;25188;51.958;5.842;2023-10-13T02:32:10;9.02;;;5.88;;
39020;SDS011;25188;51.958;5.842;2023-10-13T02:34:46;9.90;;;6.47;;
39020;SDS011;25188;51.958;5.842;2023-10-13T02:37:12;14.73;;;6.40;;
39020;SDS011;25188;51.958;5.842;2023-10-13T02:39:41;14.07;;;6.72;;
39020;SDS011;25188;51.958;5.842;2023-10-13T02:42:07;10.88;;;6.63;;
39020;SDS011;25188;51.958;5.842;2023-10-13T02:44:33;12.43;;;6.65;;
39020;SDS011;25188;51.958;5.842;2023-10-13T02:47:01;13.75;;;6.22;;
39020;SDS011;25188;51.958;5.842;2023-10-13T02:49:31;11.93;;;5.93;;
39020;SDS011;25188;51.958;5.842;2023-10-13T02:51:59;9.18;;;5.63;;
39020;SDS011;25188;51.958;5.842;2023-10-13T02:54:32;8.63;;;5.15;;
39020;SDS011;25188;51.958;5.842;2023-10-13T02:57:04;10.00;;;5.53;;
39020;SDS011;25188;51.958;5.842;2023-10-13T02:59:31;11.70;;;6.25;;
39020;SDS011;25188;51.958;5.842;2023-10-13T03:02:11;10.63;;;6.20;;
39020;SDS011;25188;51.958;5.842;2023-10-13T03:04:58;11.38;;;5.97;;
39020;SDS011;25188;51.958;5.842;2023-10-13T03:07:34;10.18;;;6.05;;
39020;SDS011;25188;51.958;5.842;2023-10-13T03:10:01;9.55;;;5.28;;
39020;SDS011;25188;51.958;5.842;2023-10-13T03:12:40;8.15;;;4.88;;
39020;SDS011;25188;51.958;5.842;2023-10-13T03:15:06;8.90;;;5.18;;
39020;SDS011;25188;51.958;5.842;2023-10-13T03:17:46;8.98;;;5.35;;
39020;SDS011;25188;51.958;5.842;2023-10-13T03:20:13;10.77;;;5.13;;
39020;SDS011;25188;51.958;5.842;2023-10-13T03:22:40;8.50;;;4.97;;
39020;SDS011;25188;51.958;5.842;2023-10-13T03:25:10;8.77;;;4.90;;
39020;SDS011;25188;51.958;5.842;2023-10-13T03:27:55;7.80;;;4.65;;
39020;SDS011;25188;51.958;5.842;2023-10-13T03:30:21;7.72;;;4.35;;
39020;SDS011;25188;51.958;5.842;2023-10-13T03:32:54;10.10;;;4.88;;
39020;SDS011;25188;51.958;5.842;2023-10-13T03:35:21;10.77;;;4.80;;
39020;SDS011;25188;51.958;5.842;2023-10-13T03:37:52;9.43;;;5.30;;
39020;SDS011;25188;51.958;5.842;2023-10-13T03:40:18;7.97;;;4.55;;
39020;SDS011;25188;51.958;5.842;2023-10-13T03:42:44;9.50;;;5.25;;
39020;SDS011;25188;51.958;5.842;2023-10-13T03:45:30;12.20;;;5.07;;
39020;SDS011;25188;51.958;5.842;2023-10-13T03:48:09;16.15;;;6.18;;
39020;SDS011;25188;51.958;5.842;2023-10-13T03:50:46;12.38;;;5.25;;
39020;SDS011;25188;51.958;5.842;2023-10-13T03:53:22;14.75;;;6.03;;
39020;SDS011;25188;51.958;5.842;2023-10-13T03:55:50;10.45;;;5.88;;
39020;SDS011;25188;51.958;5.842;2023-10-13T03:58:33;13.18;;;6.38;;
39020;SDS011;25188;51.958;5.842;2023-10-13T04:01:00;11.13;;;6.35;;
39020;SDS011;25188;51.958;5.842;2023-10-13T04:03:25;12.18;;;7.15;;
39020;SDS011;25188;51.958;5.842;2023-10-13T04:06:06;11.50;;;7.55;;
39020;SDS011;25188;51.958;5.842;2023-10-13T04:08:33;16.88;;;8.70;;
39020;SDS011;25188;51.958;5.842;2023-10-13T04:11:08;10.60;;;7.53;;
39020;SDS011;25188;51.958;5.842;2023-10-13T04:13:52;13.27;;;8.65;;
39020;SDS011;25188;51.958;5.842;2023-10-13T04:16:37;15.57;;;8.77;;
39020;SDS011;25188;51.958;5.842;2023-10-13T04:19:15;12.52;;;8.35;;
39020;SDS011;25188;51.958;5.842;2023-10-13T04:21:51;12.32;;;7.75;;
39020;SDS011;25188;51.958;5.842;2023-10-13T04:24:39;15.32;;;8.68;;
39020;SDS011;25188;51.958;5.842;2023-10-13T04:27:24;13.68;;;7.72;;
39020;SDS011;25188;51.958;5.842;2023-10-13T04:30:09;14.50;;;7.65;;
39020;SDS011;25188;51.958;5.842;2023-10-13T04:32:35;16.20;;;8.13;;
39020;SDS011;25188;51.958;5.842;2023-10-13T04:35:11;14.45;;;7.88;;
39020;SDS011;25188;51.958;5.842;2023-10-13T04:37:37;16.48;;;8.70;;
39020;SDS011;25188;51.958;5.842;2023-10-13T04:40:21;13.80;;;8.77;;
39020;SDS011;25188;51.958;5.842;2023-10-13T04:42:52;15.55;;;9.80;;
39020;SDS011;25188;51.958;5.842;2023-10-13T04:45:18;18.35;;;9.73;;
39020;SDS011;25188;51.958;5.842;2023-10-13T04:47:58;13.50;;;9.15;;
39020;SDS011;25188;51.958;5.842;2023-10-13T04:50:47;19.13;;;9.85;;
39020;SDS011;25188;51.958;5.842;2023-10-13T04:53:17;19.75;;;11.43;;
39020;SDS011;25188;51.958;5.842;2023-10-13T04:56:06;16.50;;;9.77;;
39020;SDS011;25188;51.958;5.842;2023-10-13T04:58:54;14.73;;;9.32;;
39020;SDS011;25188;51.958;5.842;2023-10-13T05:04:24;20.35;;;12.02;;
39020;SDS011;25188;51.958;5.842;2023-10-13T05:07:04;19.60;;;12.43;;
39020;SDS011;25188;51.958;5.842;2023-10-13T05:09:48;25.02;;;14.15;;
39020;SDS011;25188;51.958;5.842;2023-10-13T05:12:33;22.60;;;15.40;;
39020;SDS011;25188;51.958;5.842;2023-10-13T05:18:01;18.90;;;14.25;;
39020;SDS011;25188;51.958;5.842;2023-10-13T05:23:30;20.23;;;14.88;;
39020;SDS011;25188;51.958;5.842;2023-10-13T05:26:15;20.63;;;13.60;;
39020;SDS011;25188;51.958;5.842;2023-10-13T05:28:59;18.35;;;12.27;;
39020;SDS011;25188;51.958;5.842;2023-10-13T05:31:43;20.25;;;13.25;;
39020;SDS011;25188;51.958;5.842;2023-10-13T05:37:11;18.88;;;12.85;;
39020;SDS011;25188;51.958;5.842;2023-10-13T05:39:55;23.25;;;12.65;;
39020;SDS011;25188;51.958;5.842;2023-10-13T05:42:39;19.60;;;12.38;;
39020;SDS011;25188;51.958;5.842;2023-10-13T05:45:24;17.67;;;12.10;;
39020;SDS011;25188;51.958;5.842;2023-10-13T05:48:05;20.00;;;13.38;;
39020;SDS011;25188;51.958;5.842;2023-10-13T05:50:39;18.95;;;11.20;;
39020;SDS011;25188;51.958;5.842;2023-10-13T05:53:23;14.00;;;9.48;;
39020;SDS011;25188;51.958;5.842;2023-10-13T05:58:52;14.25;;;9.48;;
39020;SDS011;25188;51.958;5.842;2023-10-13T06:01:36;15.40;;;9.35;;
39020;SDS011;25188;51.958;5.842;2023-10-13T06:04:20;12.15;;;8.70;;
39020;SDS011;25188;51.958;5.842;2023-10-13T06:07:24;13.77;;;8.18;;
39020;SDS011;25188;51.958;5.842;2023-10-13T06:10:08;15.73;;;7.78;;
39020;SDS011;25188;51.958;5.842;2023-10-13T06:12:52;12.10;;;7.95;;
39020;SDS011;25188;51.958;5.842;2023-10-13T06:15:36;10.75;;;7.38;;
39020;SDS011;25188;51.958;5.842;2023-10-13T06:18:20;15.55;;;8.25;;
39020;SDS011;25188;51.958;5.842;2023-10-13T06:23:49;13.65;;;7.63;;
39020;SDS011;25188;51.958;5.842;2023-10-13T06:29:17;12.07;;;6.57;;
39020;SDS011;25188;51.958;5.842;2023-10-13T06:31:45;10.68;;;5.43;;
39020;SDS011;25188;51.958;5.842;2023-10-13T06:34:11;12.13;;;7.03;;
39020;SDS011;25188;51.958;5.842;2023-10-13T06:36:40;10.60;;;6.35;;
39020;SDS011;25188;51.958;5.842;2023-10-13T06:39:07;10.23;;;5.82;;
39020;SDS011;25188;51.958;5.842;2023-10-13T06:42:00;10.27;;;5.45;;
39020;SDS011;25188;51.958;5.842;2023-10-13T06:44:27;10.77;;;5.95;;
39020;SDS011;25188;51.958;5.842;2023-10-13T06:46:57;9.95;;;6.70;;
39020;SDS011;25188;51.958;5.842;2023-10-13T06:49:23;8.85;;;5.97;;
39020;SDS011;25188;51.958;5.842;2023-10-13T06:51:49;9.77;;;5.68;;
39020;SDS011;25188;51.958;5.842;2023-10-13T06:54:15;10.43;;;5.65;;
39020;SDS011;25188;51.958;5.842;2023-10-13T06:56:46;10.98;;;5.82;;
39020;SDS011;25188;51.958;5.842;2023-10-13T06:59:16;8.50;;;5.18;;
39020;SDS011;25188;51.958;5.842;2023-10-13T07:01:42;8.68;;;5.72;;
39020;SDS011;25188;51.958;5.842;2023-10-13T07:04:09;11.35;;;6.03;;
39020;SDS011;25188;51.958;5.842;2023-10-13T07:06:42;9.45;;;5.40;;
39020;SDS011;25188;51.958;5.842;2023-10-13T07:09:15;12.32;;;6.78;;
39020;SDS011;25188;51.958;5.842;2023-10-13T07:11:59;9.38;;;5.53;;
39020;SDS011;25188;51.958;5.842;2023-10-13T07:14:26;10.85;;;6.20;;
39020;SDS011;25188;51.958;5.842;2023-10-13T07:16:56;10.68;;;6.43;;
39020;SDS011;25188;51.958;5.842;2023-10-13T07:19:25;11.68;;;6.38;;
39020;SDS011;25188;51.958;5.842;2023-10-13T07:21:54;11.48;;;6.15;;
39020;SDS011;25188;51.958;5.842;2023-10-13T07:24:26;10.50;;;6.00;;
39020;SDS011;25188;51.958;5.842;2023-10-13T07:26:56;11.05;;;6.28;;
39020;SDS011;25188;51.958;5.842;2023-10-13T07:29:29;10.95;;;7.00;;
39020;SDS011;25188;51.958;5.842;2023-10-13T07:31:55;11.52;;;6.07;;
39020;SDS011;25188;51.958;5.842;2023-10-13T07:34:21;11.15;;;6.10;;
39020;SDS011;25188;51.958;5.842;2023-10-13T07:36:51;11.93;;;6.10;;
39020;SDS011;25188;51.958;5.842;2023-10-13T07:39:18;10.50;;;6.07;;
39020;SDS011;25188;51.958;5.842;2023-10-13T07:41:48;11.98;;;5.97;;
39020;SDS011;25188;51.958;5.842;2023-10-13T07:44:19;12.43;;;5.88;;
39020;SDS011;25188;51.958;5.842;2023-10-13T07:46:53;13.93;;;6.60;;
39020;SDS011;25188;51.958;5.842;2023-10-13T07:49:31;10.50;;;6.03;;
39020;SDS011;25188;51.958;5.842;2023-10-13T07:52:01;10.43;;;5.60;;
39020;SDS011;25188;51.958;5.842;2023-10-13T07:54:45;11.75;;;6.25;;
39020;SDS011;25188;51.958;5.842;2023-10-13T07:57:14;16.02;;;7.20;;
39020;SDS011;25188;51.958;5.842;2023-10-13T07:59:41;11.55;;;6.10;;
39020;SDS011;25188;51.958;5.842;2023-10-13T08:02:16;14.85;;;7.70;;
39020;SDS011;25188;51.958;5.842;2023-10-13T08:05:02;15.40;;;6.90;;
39020;SDS011;25188;51.958;5.842;2023-10-13T08:07:29;11.73;;;6.15;;
39020;SDS011;25188;51.958;5.842;2023-10-13T08:09:56;13.35;;;6.38;;
39020;SDS011;25188;51.958;5.842;2023-10-13T08:12:24;13.52;;;6.45;;
39020;SDS011;25188;51.958;5.842;2023-10-13T08:14:50;18.15;;;6.03;;
39020;SDS011;25188;51.958;5.842;2023-10-13T08:17:34;12.35;;;5.43;;
39020;SDS011;25188;51.958;5.842;2023-10-13T08:20:00;14.55;;;5.65;;
39020;SDS011;25188;51.958;5.842;2023-10-13T08:22:36;18.63;;;5.93;;
39020;SDS011;25188;51.958;5.842;2023-10-13T08:25:03;17.02;;;6.93;;
39020;SDS011;25188;51.958;5.842;2023-10-13T08:28:01;17.33;;;6.03;;
39020;SDS011;25188;51.958;5.842;2023-10-13T08:30:50;14.05;;;5.85;;
39020;SDS011;25188;51.958;5.842;2023-10-13T08:33:18;11.85;;;5.70;;
39020;SDS011;25188;51.958;5.842;2023-10-13T08:35:49;13.80;;;5.50;;
39020;SDS011;25188;51.958;5.842;2023-10-13T08:38:40;11.73;;;4.72;;
39020;SDS011;25188;51.958;5.842;2023-10-13T08:41:16;14.82;;;5.75;;
39020;SDS011;25188;51.958;5.842;2023-10-13T08:43:41;16.00;;;5.53;;
39020;SDS011;25188;51.958;5.842;2023-10-13T08:46:16;13.80;;;5.60;;
39020;SDS011;25188;51.958;5.842;2023-10-13T08:48:57;13.70;;;5.60;;
39020;SDS011;25188;51.958;5.842;2023-10-13T08:51:32;19.70;;;6.47;;
39020;SDS011;25188;51.958;5.842;2023-10-13T08:54:13;14.85;;;5.53;;
39020;SDS011;25188;51.958;5.842;2023-10-13T08:56:58;13.05;;;4.55;;
39020;SDS011;25188;51.958;5.842;2023-10-13T08:59:50;14.10;;;4.70;;
39020;SDS011;25188;51.958;5.842;2023-10-13T09:02:21;18.05;;;5.93;;
39020;SDS011;25188;51.958;5.842;2023-10-13T09:05:08;11.55;;;4.90;;
39020;SDS011;25188;51.958;5.842;2023-10-13T09:07:54;10.85;;;4.68;;
39020;SDS011;25188;51.958;5.842;2023-10-13T09:10:22;8.13;;;3.90;;
39020;SDS011;25188;51.958;5.842;2023-10-13T09:13:09;13.25;;;5.45;;
39020;SDS011;25188;51.958;5.842;2023-10-13T09:15:43;18.92;;;5.80;;
39020;SDS011;25188;51.958;5.842;2023-10-13T09:18:25;15.55;;;5.53;;
39020;SDS011;25188;51.958;5.842;2023-10-13T09:21:09;17.23;;;4.93;;
39020;SDS011;25188;51.958;5.842;2023-10-13T09:23:54;14.63;;;4.60;;
39020;SDS011;25188;51.958;5.842;2023-10-13T09:26:39;11.60;;;4.80;;
39020;SDS011;25188;51.958;5.842;2023-10-13T09:29:16;8.90;;;4.20;;
39020;SDS011;25188;51.958;5.842;2023-10-13T09:31:43;13.13;;;4.55;;
39020;SDS011;25188;51.958;5.842;2023-10-13T09:34:19;10.40;;;4.28;;
39020;SDS011;25188;51.958;5.842;2023-10-13T09:36:46;10.80;;;4.40;;
39020;SDS011;25188;51.958;5.842;2023-10-13T09:39:12;11.23;;;4.75;;
39020;SDS011;25188;51.958;5.842;2023-10-13T09:41:54;13.30;;;5.43;;
39020;SDS011;25188;51.958;5.842;2023-10-13T09:44:22;15.75;;;5.95;;
39020;SDS011;25188;51.958;5.842;2023-10-13T09:46:48;14.88;;;5.53;;
39020;SDS011;25188;51.958;5.842;2023-10-13T09:49:14;11.82;;;5.35;;
39020;SDS011;25188;51.958;5.842;2023-10-13T09:52:09;13.18;;;4.88;;
39020;SDS011;25188;51.958;5.842;2023-10-13T09:54:44;13.98;;;6.07;;
39020;SDS011;25188;51.958;5.842;2023-10-13T09:57:36;13.10;;;4.72;;
39020;SDS011;25188;51.958;5.842;2023-10-13T10:00:13;14.18;;;5.18;;
39020;SDS011;25188;51.958;5.842;2023-10-13T10:02:53;16.75;;;5.28;;
39020;SDS011;25188;51.958;5.842;2023-10-13T10:05:26;12.55;;;5.15;;
39020;SDS011;25188;51.958;5.842;2023-10-13T10:07:57;14.77;;;4.93;;
39020;SDS011;25188;51.958;5.842;2023-10-13T10:10:27;14.85;;;4.85;;
39020;SDS011;25188;51.958;5.842;2023-10-13T10:16:13;14.07;;;4.20;;
39020;SDS011;25188;51.958;5.842;2023-10-13T10:18:45;14.25;;;4.75;;
39020;SDS011;25188;51.958;5.842;2023-10-13T10:21:11;13.15;;;5.88;;
39020;SDS011;25188;51.958;5.842;2023-10-13T10:23:40;10.60;;;3.85;;
39020;SDS011;25188;51.958;5.842;2023-10-13T10:26:12;14.88;;;4.80;;
39020;SDS011;25188;51.958;5.842;2023-10-13T10:28:41;14.40;;;5.07;;
39020;SDS011;25188;51.958;5.842;2023-10-13T10:31:08;16.52;;;6.10;;
39020;SDS011;25188;51.958;5.842;2023-10-13T10:33:37;10.65;;;4.57;;
39020;SDS011;25188;51.958;5.842;2023-10-13T10:36:03;11.70;;;4.80;;
39020;SDS011;25188;51.958;5.842;2023-10-13T10:38:30;14.43;;;5.18;;
39020;SDS011;25188;51.958;5.842;2023-10-13T10:41:05;11.45;;;5.20;;
39020;SDS011;25188;51.958;5.842;2023-10-13T10:46:25;16.52;;;6.10;;
39020;SDS011;25188;51.958;5.842;2023-10-13T10:48:51;12.85;;;5.25;;
39020;SDS011;25188;51.958;5.842;2023-10-13T10:51:26;12.45;;;5.00;;
39020;SDS011;25188;51.958;5.842;2023-10-13T10:53:56;11.95;;;4.75;;
39020;SDS011;25188;51.958;5.842;2023-10-13T10:56:24;15.20;;;5.00;;
39020;SDS011;25188;51.958;5.842;2023-10-13T10:59:05;18.60;;;5.82;;
39020;SDS011;25188;51.958;5.842;2023-10-13T11:01:34;12.80;;;5.30;;
39020;SDS011;25188;51.958;5.842;2023-10-13T11:04:17;15.57;;;5.00;;
39020;SDS011;25188;51.958;5.842;2023-10-13T11:06:53;12.57;;;4.80;;
39020;SDS011;25188;51.958;5.842;2023-10-13T11:11:52;12.27;;;4.75;;
39020;SDS011;25188;51.958;5.842;2023-10-13T11:14:22;14.15;;;4.82;;
39020;SDS011;25188;51.958;5.842;2023-10-13T11:16:50;15.55;;;5.25;;
39020;SDS011;25188;51.958;5.842;2023-10-13T11:19:18;14.10;;;4.43;;
39020;SDS011;25188;51.958;5.842;2023-10-13T11:21:51;17.65;;;5.78;;
39020;SDS011;25188;51.958;5.842;2023-10-13T11:24:18;14.23;;;5.57;;
39020;SDS011;25188;51.958;5.842;2023-10-13T11:26:46;14.65;;;4.72;;
39020;SDS011;25188;51.958;5.842;2023-10-13T11:29:17;15.98;;;5.18;;
39020;SDS011;25188;51.958;5.842;2023-10-13T11:31:47;18.10;;;5.82;;
39020;SDS011;25188;51.958;5.842;2023-10-13T11:34:23;18.15;;;6.05;;
39020;SDS011;25188;51.958;5.842;2023-10-13T11:36:49;16.98;;;5.43;;
39020;SDS011;25188;51.958;5.842;2023-10-13T11:39:15;11.77;;;5.10;;
39020;SDS011;25188;51.958;5.842;2023-10-13T11:41:50;16.48;;;5.32;;
39020;SDS011;25188;51.958;5.842;2023-10-13T11:44:18;15.27;;;5.00;;
39020;SDS011;25188;51.958;5.842;2023-10-13T11:46:45;17.35;;;5.05;;
39020;SDS011;25188;51.958;5.842;2023-10-13T11:49:13;15.73;;;5.60;;
39020;SDS011;25188;51.958;5.842;2023-10-13T11:51:45;13.88;;;5.47;;
39020;SDS011;25188;51.958;5.842;2023-10-13T11:54:16;15.95;;;5.32;;
39020;SDS011;25188;51.958;5.842;2023-10-13T11:56:42;15.82;;;5.35;;
39020;SDS011;25188;51.958;5.842;2023-10-13T11:59:08;17.63;;;5.53;;
39020;SDS011;25188;51.958;5.842;2023-10-13T12:01:44;14.65;;;5.63;;
39020;SDS011;25188;51.958;5.842;2023-10-13T12:04:28;19.67;;;6.28;;
39020;SDS011;25188;51.958;5.842;2023-10-13T12:07:06;14.38;;;5.18;;
39020;SDS011;25188;51.958;5.842;2023-10-13T12:09:45;13.68;;;5.00;;
39020;SDS011;25188;51.958;5.842;2023-10-13T12:12:24;15.25;;;5.35;;
39020;SDS011;25188;51.958;5.842;2023-10-13T12:14:51;13.23;;;5.30;;
39020;SDS011;25188;51.958;5.842;2023-10-13T12:17:19;15.73;;;5.53;;
39020;SDS011;25188;51.958;5.842;2023-10-13T12:20:05;15.77;;;5.40;;
39020;SDS011;25188;51.958;5.842;2023-10-13T12:22:36;14.35;;;5.55;;
39020;SDS011;25188;51.958;5.842;2023-10-13T12:25:08;17.60;;;5.65;;
39020;SDS011;25188;51.958;5.842;2023-10-13T12:27:53;18.83;;;5.53;;
39020;SDS011;25188;51.958;5.842;2023-10-13T12:30:22;14.73;;;4.97;;
39020;SDS011;25188;51.958;5.842;2023-10-13T12:33:01;12.85;;;5.40;;
39020;SDS011;25188;51.958;5.842;2023-10-13T12:35:35;13.48;;;5.78;;
39020;SDS011;25188;51.958;5.842;2023-10-13T12:38:10;17.27;;;5.95;;
39020;SDS011;25188;51.958;5.842;2023-10-13T12:41:04;18.70;;;5.32;;
39020;SDS011;25188;51.958;5.842;2023-10-13T12:43:48;16.67;;;5.57;;
39020;SDS011;25188;51.958;5.842;2023-10-13T12:46:32;13.00;;;5.20;;
39020;SDS011;25188;51.958;5.842;2023-10-13T12:49:17;15.73;;;5.32;;
39020;SDS011;25188;51.958;5.842;2023-10-13T12:54:26;17.90;;;5.97;;
39020;SDS011;25188;51.958;5.842;2023-10-13T12:57:00;18.83;;;6.53;;
39020;SDS011;25188;51.958;5.842;2023-10-13T12:59:26;13.75;;;5.40;;
39020;SDS011;25188;51.958;5.842;2023-10-13T13:01:52;14.25;;;4.97;;
39020;SDS011;25188;51.958;5.842;2023-10-13T13:04:18;15.00;;;5.70;;
39020;SDS011;25188;51.958;5.842;2023-10-13T13:06:47;18.83;;;5.30;;
39020;SDS011;25188;51.958;5.842;2023-10-13T13:09:14;16.60;;;6.25;;
39020;SDS011;25188;51.958;5.842;2023-10-13T13:11:40;14.90;;;5.20;;
39020;SDS011;25188;51.958;5.842;2023-10-13T13:14:06;11.95;;;4.68;;
39020;SDS011;25188;51.958;5.842;2023-10-13T13:16:33;18.65;;;6.15;;
39020;SDS011;25188;51.958;5.842;2023-10-13T13:18:59;15.50;;;4.90;;
39020;SDS011;25188;51.958;5.842;2023-10-13T13:21:28;13.23;;;4.63;;
39020;SDS011;25188;51.958;5.842;2023-10-13T13:23:54;11.52;;;4.55;;
39020;SDS011;25188;51.958;5.842;2023-10-13T13:26:20;15.55;;;5.80;;
39020;SDS011;25188;51.958;5.842;2023-10-13T13:28:47;17.85;;;5.43;;
39020;SDS011;25188;51.958;5.842;2023-10-13T13:31:19;13.90;;;4.60;;
39020;SDS011;25188;51.958;5.842;2023-10-13T13:33:51;15.70;;;4.47;;
39020;SDS011;25188;51.958;5.842;2023-10-13T13:36:17;18.55;;;5.97;;
39020;SDS011;25188;51.958;5.842;2023-10-13T13:38:44;12.18;;;4.55;;
39020;SDS011;25188;51.958;5.842;2023-10-13T13:41:19;15.23;;;4.63;;
39020;SDS011;25188;51.958;5.842;2023-10-13T13:43:46;17.58;;;5.82;;
39020;SDS011;25188;51.958;5.842;2023-10-13T13:48:50;15.40;;;5.13;;
39020;SDS011;25188;51.958;5.842;2023-10-13T13:51:17;14.25;;;5.03;;
39020;SDS011;25188;51.958;5.842;2023-10-13T13:53:51;18.45;;;5.20;;
39020;SDS011;25188;51.958;5.842;2023-10-13T13:56:18;14.95;;;5.32;;
39020;SDS011;25188;51.958;5.842;2023-10-13T13:58:51;13.57;;;4.95;;
39020;SDS011;25188;51.958;5.842;2023-10-13T14:01:17;13.85;;;5.13;;
39020;SDS011;25188;51.958;5.842;2023-10-13T14:03:54;9.65;;;4.10;;
39020;SDS011;25188;51.958;5.842;2023-10-13T14:08:54;15.25;;;4.80;;
39020;SDS011;25188;51.958;5.842;2023-10-13T14:11:21;16.70;;;4.80;;
39020;SDS011;25188;51.958;5.842;2023-10-13T14:14:05;18.45;;;5.15;;
39020;SDS011;25188;51.958;5.842;2023-10-13T14:16:39;12.27;;;4.82;;
39020;SDS011;25188;51.958;5.842;2023-10-13T14:19:13;17.80;;;4.65;;
39020;SDS011;25188;51.958;5.842;2023-10-13T14:21:54;11.52;;;3.97;;
39020;SDS011;25188;51.958;5.842;2023-10-13T14:24:20;19.10;;;4.43;;
39020;SDS011;25188;51.958;5.842;2023-10-13T14:26:56;15.93;;;4.15;;
39020;SDS011;25188;51.958;5.842;2023-10-13T14:29:35;12.80;;;4.18;;
39020;SDS011;25188;51.958;5.842;2023-10-13T14:32:12;14.77;;;5.10;;
39020;SDS011;25188;51.958;5.842;2023-10-13T14:34:40;11.77;;;4.38;;
39020;SDS011;25188;51.958;5.842;2023-10-13T14:37:19;15.13;;;5.10;;
39020;SDS011;25188;51.958;5.842;2023-10-13T14:40:05;14.75;;;4.80;;
39020;SDS011;25188;51.958;5.842;2023-10-13T14:42:37;14.32;;;4.30;;
39020;SDS011;25188;51.958;5.842;2023-10-13T14:45:05;15.25;;;5.03;;
39020;SDS011;25188;51.958;5.842;2023-10-13T14:47:38;12.65;;;4.90;;
39020;SDS011;25188;51.958;5.842;2023-10-13T14:50:10;16.08;;;4.90;;
39020;SDS011;25188;51.958;5.842;2023-10-13T14:52:44;12.52;;;4.88;;
39020;SDS011;25188;51.958;5.842;2023-10-13T14:55:10;18.33;;;4.65;;
39020;SDS011;25188;51.958;5.842;2023-10-13T14:57:44;19.08;;;4.57;;
39020;SDS011;25188;51.958;5.842;2023-10-13T15:00:11;15.25;;;4.78;;
39020;SDS011;25188;51.958;5.842;2023-10-13T15:02:39;16.85;;;4.93;;
39020;SDS011;25188;51.958;5.842;2023-10-13T15:05:08;18.33;;;4.57;;
39020;SDS011;25188;51.958;5.842;2023-10-13T15:07:41;12.82;;;5.57;;
39020;SDS011;25188;51.958;5.842;2023-10-13T15:10:13;16.45;;;4.32;;
39020;SDS011;25188;51.958;5.842;2023-10-13T15:12:43;18.55;;;5.20;;
39020;SDS011;25188;51.958;5.842;2023-10-13T15:17:41;13.43;;;4.95;;
39020;SDS011;25188;51.958;5.842;2023-10-13T15:20:10;14.15;;;5.00;;
39020;SDS011;25188;51.958;5.842;2023-10-13T15:22:43;11.10;;;4.80;;
39020;SDS011;25188;51.958;5.842;2023-10-13T15:25:09;16.23;;;5.32;;
39020;SDS011;25188;51.958;5.842;2023-10-13T15:27:53;11.00;;;4.47;;
39020;SDS011;25188;51.958;5.842;2023-10-13T15:30:27;17.60;;;5.03;;
39020;SDS011;25188;51.958;5.842;2023-10-13T15:33:07;11.45;;;4.72;;
39020;SDS011;25188;51.958;5.842;2023-10-13T15:35:33;13.38;;;5.07;;
39020;SDS011;25188;51.958;5.842;2023-10-13T15:37:59;12.05;;;4.97;;
39020;SDS011;25188;51.958;5.842;2023-10-13T15:40:25;14.10;;;5.18;;
39020;SDS011;25188;51.958;5.842;2023-10-13T15:42:52;15.48;;;4.45;;
39020;SDS011;25188;51.958;5.842;2023-10-13T15:45:24;14.73;;;5.25;;
39020;SDS011;25188;51.958;5.842;2023-10-13T15:47:57;12.57;;;4.22;;
39020;SDS011;25188;51.958;5.842;2023-10-13T15:50:23;11.82;;;4.45;;